createdAt,value
2023-12-16T09:01:29.251Z,29.39
2023-12-16T09:02:06.754Z,29.36
2023-12-16T09:03:06.688Z,29.34
2023-12-16T09:04:06.725Z,29.32
2023-12-16T09:05:06.661Z,29.32
2023-12-16T09:06:06.676Z,29.33
2023-12-16T09:07:06.687Z,29.32
2023-12-16T09:08:06.641Z,29.35
2023-12-16T09:09:07.760Z,29.38
2023-12-16T09:10:06.677Z,29.26
2023-12-16T09:11:06.648Z,29.29
2023-12-16T09:12:06.654Z,29.26
2023-12-16T09:13:06.699Z,29.21
2023-12-16T09:14:06.685Z,29.20
2023-12-16T09:15:06.670Z,29.18
2023-12-16T09:16:06.720Z,29.17
2023-12-16T09:17:06.650Z,29.18
2023-12-16T09:18:07.256Z,29.11
2023-12-16T09:19:06.690Z,29.10
2023-12-16T09:20:07.022Z,29.11
2023-12-16T09:21:06.662Z,29.11
2023-12-16T09:22:06.738Z,29.05
2023-12-16T09:23:06.797Z,29.03
2023-12-16T09:24:06.875Z,29.05
2023-12-16T09:25:06.982Z,29.01
2023-12-16T09:26:07.011Z,29.00
2023-12-16T09:27:07.060Z,29.03
2023-12-16T09:28:07.198Z,28.99
2023-12-16T09:29:07.353Z,29.01
2023-12-16T09:30:07.334Z,29.01
2023-12-16T09:31:07.485Z,28.93
2023-12-16T09:32:14.794Z,28.99
2023-12-16T09:33:14.839Z,28.96
2023-12-16T09:34:14.817Z,28.95
2023-12-16T09:35:14.801Z,28.92
2023-12-16T09:36:15.838Z,28.95
2023-12-16T09:37:14.840Z,28.95
2023-12-16T09:38:14.786Z,28.95
2023-12-16T09:39:14.785Z,28.89
2023-12-16T09:40:14.861Z,28.86
2023-12-16T09:41:14.792Z,28.86
2023-12-16T09:42:14.795Z,28.88
2023-12-16T09:43:14.836Z,28.85
2023-12-16T09:44:14.788Z,28.85
2023-12-16T09:45:14.797Z,28.78
2023-12-16T09:46:14.845Z,28.85
2023-12-16T09:47:14.784Z,28.78
2023-12-16T09:48:14.879Z,28.84
2023-12-16T09:49:14.853Z,28.84
2023-12-16T09:50:14.785Z,28.81
2023-12-16T09:51:14.797Z,28.81
2023-12-16T09:52:14.841Z,28.81
2023-12-16T09:53:14.854Z,28.84
2023-12-16T09:54:14.835Z,28.84
2023-12-16T09:55:14.896Z,28.81
2023-12-16T09:56:14.856Z,28.80
2023-12-16T09:57:14.911Z,28.85
2023-12-16T09:58:14.992Z,28.77
2023-12-16T09:59:15.020Z,28.83
2023-12-16T10:00:15.118Z,28.78
2023-12-16T10:01:15.208Z,28.79
2023-12-16T10:02:15.248Z,28.74
2023-12-16T10:03:15.259Z,28.79
2023-12-16T10:04:15.272Z,28.85
2023-12-16T10:05:15.315Z,28.82
2023-12-16T10:06:15.348Z,28.82
2023-12-16T10:07:15.476Z,28.78
2023-12-16T10:08:15.421Z,28.79
2023-12-16T10:09:15.487Z,28.78
2023-12-16T10:10:15.546Z,28.73
2023-12-16T10:11:15.563Z,28.79
2023-12-16T10:12:15.558Z,28.79
2023-12-16T10:13:15.714Z,28.73
2023-12-16T10:14:15.668Z,28.81
2023-12-16T10:15:15.676Z,28.74
2023-12-16T10:16:15.762Z,28.74
2023-12-16T10:17:15.754Z,28.75
2023-12-16T10:18:15.889Z,28.69
2023-12-16T10:19:15.867Z,28.68
2023-12-16T10:20:15.838Z,28.70
2023-12-16T10:21:19.478Z,28.71
2023-12-16T10:22:17.042Z,28.70
2023-12-16T10:23:15.856Z,28.70
2023-12-16T10:24:15.872Z,28.68
2023-12-16T10:25:15.888Z,28.66
2023-12-16T10:26:15.891Z,28.68
2023-12-16T10:27:15.844Z,28.67
2023-12-16T10:28:15.893Z,28.67
2023-12-16T10:29:15.878Z,28.67
2023-12-16T10:30:15.877Z,28.67
2023-12-16T10:31:16.015Z,28.60
2023-12-16T10:32:15.915Z,28.61
2023-12-16T10:33:15.927Z,28.64
2023-12-16T10:34:15.910Z,28.61
2023-12-16T10:35:15.887Z,28.64
2023-12-16T10:36:15.915Z,28.66
2023-12-16T10:37:15.916Z,28.63
2023-12-16T10:38:15.882Z,28.63
2023-12-16T10:39:15.888Z,28.64
2023-12-16T10:40:16.127Z,28.60
2023-12-16T10:41:15.850Z,28.63
2023-12-16T10:42:15.856Z,28.63
2023-12-16T10:43:15.868Z,28.63
2023-12-16T10:44:15.862Z,28.64
2023-12-16T10:45:15.856Z,28.62
2023-12-16T10:46:15.940Z,28.59
2023-12-16T10:47:15.895Z,28.59
2023-12-16T10:48:15.960Z,28.60
2023-12-16T10:49:15.986Z,28.63
2023-12-16T10:50:15.912Z,28.59
2023-12-16T10:51:15.921Z,28.59
2023-12-16T10:52:15.985Z,28.66
2023-12-16T10:53:15.988Z,28.62
2023-12-16T10:54:15.974Z,28.60
2023-12-16T10:55:16.146Z,28.62
2023-12-16T10:56:16.076Z,28.60
2023-12-16T10:57:16.037Z,28.60
2023-12-16T10:58:16.078Z,28.60
2023-12-16T10:59:16.095Z,28.59
2023-12-16T11:00:16.078Z,28.59
2023-12-16T11:01:16.200Z,28.56
2023-12-16T11:02:16.106Z,28.55
2023-12-16T11:03:16.189Z,28.59
2023-12-16T11:04:16.217Z,28.56
2023-12-16T11:05:16.240Z,28.61
2023-12-16T11:06:16.216Z,28.55
2023-12-16T11:07:16.259Z,28.59
2023-12-16T11:08:16.220Z,28.59
2023-12-16T11:09:16.253Z,28.55
2023-12-16T11:10:16.249Z,28.56
2023-12-16T11:11:16.238Z,28.48
2023-12-16T11:12:16.285Z,28.48
2023-12-16T11:13:16.271Z,28.51
2023-12-16T11:14:16.285Z,28.51
2023-12-16T11:15:16.277Z,28.53
2023-12-16T11:16:16.337Z,28.53
2023-12-16T11:17:16.286Z,28.57
2023-12-16T11:18:16.386Z,28.56
2023-12-16T11:19:16.398Z,28.52
2023-12-16T11:20:16.354Z,28.45
2023-12-16T11:21:16.356Z,28.47
2023-12-16T11:22:16.446Z,28.48
2023-12-16T11:23:16.356Z,28.41
2023-12-16T11:24:16.381Z,28.48
2023-12-16T11:25:16.437Z,28.47
2023-12-16T11:26:16.463Z,28.47
2023-12-16T11:27:16.392Z,28.45
2023-12-16T11:28:16.431Z,28.41
2023-12-16T11:29:16.383Z,28.36
2023-12-16T11:30:16.475Z,28.38
2023-12-16T11:31:16.556Z,28.35
2023-12-16T11:32:16.477Z,28.40
2023-12-16T11:33:16.627Z,28.40
2023-12-16T11:34:16.630Z,28.40
2023-12-16T11:35:16.569Z,28.31
2023-12-16T11:36:16.585Z,28.38
2023-12-16T11:37:16.729Z,28.37
2023-12-16T11:38:16.683Z,28.38
2023-12-16T11:39:16.727Z,28.37
2023-12-16T11:40:16.771Z,28.37
2023-12-16T11:41:16.791Z,28.33
2023-12-16T11:42:16.846Z,28.34
2023-12-16T11:43:16.974Z,28.33
2023-12-16T11:44:16.976Z,28.30
2023-12-16T11:45:17.030Z,28.30
2023-12-16T11:46:17.114Z,28.34
2023-12-16T11:47:17.148Z,28.25
2023-12-16T11:48:17.378Z,28.26
2023-12-16T11:49:17.435Z,28.24
2023-12-16T11:50:17.352Z,28.27
2023-12-16T11:51:17.409Z,28.27
2023-12-16T11:52:17.501Z,28.20
2023-12-16T11:53:17.576Z,28.18
2023-12-16T11:54:17.600Z,28.17
2023-12-16T11:55:17.668Z,28.20
2023-12-16T11:56:17.697Z,28.12
2023-12-16T11:57:17.763Z,28.03
2023-12-16T11:58:17.817Z,27.94
2023-12-16T11:59:17.884Z,27.97
2023-12-16T12:00:17.920Z,27.75
2023-12-16T12:01:18.084Z,27.64
2023-12-16T12:02:17.984Z,27.66
2023-12-16T12:03:18.046Z,27.40
2023-12-16T12:04:18.142Z,27.25
2023-12-16T12:05:18.381Z,27.08
2023-12-16T12:06:18.188Z,26.76
2023-12-16T12:07:18.278Z,26.36
2023-12-16T12:08:18.265Z,26.23
2023-12-16T12:09:18.269Z,25.83
2023-12-16T12:10:18.389Z,25.64
2023-12-16T12:11:18.353Z,25.72
2023-12-16T12:12:18.431Z,25.41
2023-12-16T12:13:18.449Z,25.19
2023-12-16T12:14:18.514Z,25.76
2023-12-16T12:15:20.653Z,25.78
2023-12-16T12:16:18.596Z,25.72
2023-12-16T12:17:18.614Z,25.65
2023-12-16T12:18:18.704Z,25.55
2023-12-16T12:19:18.780Z,25.35
2023-12-16T12:20:18.709Z,25.63
2023-12-16T12:21:18.745Z,25.53
2023-12-16T12:22:18.742Z,25.56
2023-12-16T12:23:18.793Z,25.75
2023-12-16T12:24:18.818Z,25.89
2023-12-16T12:26:18.870Z,26.08
2023-12-16T12:27:18.895Z,26.07
2023-12-16T12:28:18.891Z,26.07
2023-12-16T12:29:18.921Z,26.13
2023-12-16T12:30:19.138Z,26.16
2023-12-16T12:31:18.989Z,26.17
2023-12-16T12:32:19.091Z,26.13
2023-12-16T12:33:19.091Z,26.19
2023-12-16T12:34:19.144Z,26.22
2023-12-16T12:35:19.155Z,26.19
2023-12-16T12:36:19.065Z,26.23
2023-12-16T12:37:19.064Z,26.22
2023-12-16T12:38:19.068Z,26.19
2023-12-16T12:39:19.069Z,26.17
2023-12-16T12:40:19.191Z,26.18
2023-12-16T12:41:19.070Z,26.18
2023-12-16T12:42:19.087Z,26.20
2023-12-16T12:43:19.103Z,26.23
2023-12-16T12:44:19.090Z,26.21
2023-12-16T12:45:19.172Z,26.21
2023-12-16T12:46:19.199Z,26.24
2023-12-16T12:47:19.187Z,26.21
2023-12-16T12:48:19.371Z,26.20
2023-12-16T12:49:19.436Z,26.20
2023-12-16T12:50:19.299Z,26.18
2023-12-16T12:51:19.362Z,26.16
2023-12-16T12:52:19.429Z,26.22
2023-12-16T12:53:23.524Z,26.21
2023-12-16T12:54:20.461Z,26.23
2023-12-16T12:55:19.446Z,26.28
2023-12-16T12:56:19.429Z,26.25
2023-12-16T12:57:19.444Z,26.30
2023-12-16T12:58:23.434Z,26.30
2023-12-16T12:59:58.166Z,26.35
2023-12-16T13:00:20.450Z,26.35
2023-12-16T13:01:19.563Z,26.39
2023-12-16T13:02:19.473Z,26.41
2023-12-16T13:03:19.580Z,26.42
2023-12-16T13:04:19.528Z,26.40
2023-12-16T13:05:19.522Z,26.49
2023-12-16T13:06:19.557Z,26.42
2023-12-16T13:07:19.447Z,26.46
2023-12-16T13:08:19.494Z,26.52
2023-12-16T13:09:19.541Z,26.45
2023-12-16T13:10:19.482Z,26.52
2023-12-16T13:11:19.470Z,26.54
2023-12-16T13:12:19.482Z,26.50
2023-12-16T13:13:19.464Z,26.54
2023-12-16T13:14:26.723Z,26.54
2023-12-16T13:15:20.529Z,26.52
2023-12-16T13:16:19.518Z,26.59
2023-12-16T13:17:19.542Z,26.64
2023-12-16T13:18:19.546Z,26.61
2023-12-16T13:19:19.645Z,26.64
2023-12-16T13:20:19.495Z,26.65
2023-12-16T13:21:19.596Z,26.64
2023-12-16T13:22:19.491Z,26.62
2023-12-16T13:23:19.512Z,26.61
2023-12-16T13:24:19.512Z,26.62
2023-12-16T13:25:19.512Z,26.69
2023-12-16T13:26:19.527Z,26.67
2023-12-16T13:27:19.542Z,26.68
2023-12-16T13:28:19.732Z,26.69
2023-12-16T13:29:19.606Z,26.66
2023-12-16T13:30:19.774Z,26.71
2023-12-16T13:31:19.698Z,26.74
2023-12-16T13:32:19.766Z,26.72
2023-12-16T13:33:19.788Z,26.72
2023-12-16T13:34:19.805Z,26.69
2023-12-16T13:35:19.735Z,26.69
2023-12-16T13:36:33.829Z,26.72
2023-12-16T13:37:20.790Z,26.72
2023-12-16T13:38:19.763Z,26.72
2023-12-16T13:39:19.787Z,26.75
2023-12-16T13:40:19.776Z,26.77
2023-12-16T13:41:19.769Z,26.77
2023-12-16T13:42:19.823Z,26.79
2023-12-16T13:43:19.772Z,26.78
2023-12-16T13:44:19.774Z,26.82
2023-12-16T13:45:19.812Z,26.84
2023-12-16T13:46:19.801Z,26.87
2023-12-16T13:47:19.771Z,26.87
2023-12-16T13:48:20.007Z,26.82
2023-12-16T13:49:19.909Z,26.87
2023-12-16T13:50:19.796Z,26.88
2023-12-16T13:51:19.842Z,26.85
2023-12-16T13:52:19.881Z,26.87
2023-12-16T13:53:19.791Z,26.89
2023-12-16T13:54:19.992Z,26.93
2023-12-16T13:55:19.792Z,26.95
2023-12-16T13:56:19.792Z,26.90
2023-12-16T13:57:19.778Z,26.95
2023-12-16T13:58:19.804Z,26.97
2023-12-16T13:59:19.821Z,26.95
2023-12-16T14:00:19.848Z,26.99
